createdAt,value
2016-10-30T00:00:51.966Z,1045.12
2016-10-30T00:01:51.955Z,1045.1
2016-10-30T00:02:51.942Z,1045.13
2016-10-30T00:03:51.932Z,1045.09
2016-10-30T00:04:51.922Z,1045.06
2016-10-30T00:05:51.912Z,1045.06
2016-10-30T00:06:51.900Z,1045.07
2016-10-30T00:07:51.891Z,1045.07
2016-10-30T00:08:51.881Z,1045.05
2016-10-30T00:09:51.874Z,1045.03
2016-10-30T00:10:51.861Z,1045.02
2016-10-30T00:11:51.851Z,1044.96
2016-10-30T00:12:51.843Z,1044.97
2016-10-30T00:13:51.830Z,1044.95
2016-10-30T00:14:51.824Z,1044.97
2016-10-30T00:15:51.809Z,1044.95
2016-10-30T00:16:51.803Z,1044.93
2016-10-30T00:17:51.790Z,1044.9
2016-10-30T00:18:51.780Z,1044.9
2016-10-30T00:19:51.773Z,1044.92
2016-10-30T00:20:51.763Z,1044.93
2016-10-30T00:21:51.752Z,1044.93
2016-10-30T00:22:51.743Z,1044.91
2016-10-30T00:23:51.730Z,1044.91
2016-10-30T00:24:51.721Z,1044.91
2016-10-30T00:25:51.710Z,1044.91
2016-10-30T00:26:51.700Z,1044.87
2016-10-30T00:27:51.692Z,1044.88
2016-10-30T00:28:51.682Z,1044.79
2016-10-30T00:29:51.670Z,1044.81
2016-10-30T00:30:51.660Z,1044.77
2016-10-30T00:31:51.650Z,1044.79
2016-10-30T00:32:51.640Z,1044.74
2016-10-30T00:33:51.630Z,1044.76
2016-10-30T00:34:51.723Z,1044.71
2016-10-30T00:35:51.610Z,1044.67
2016-10-30T00:36:51.602Z,1044.66
2016-10-30T00:37:51.593Z,1044.63
2016-10-30T00:38:51.581Z,1044.64
2016-10-30T00:39:51.572Z,1044.62
2016-10-30T00:40:51.563Z,1044.59
2016-10-30T00:41:51.551Z,1044.57
2016-10-30T00:42:51.542Z,1044.56
2016-10-30T00:43:53.733Z,1044.53
2016-10-30T00:44:51.774Z,1044.56
2016-10-30T00:45:51.514Z,1044.59
2016-10-30T00:46:51.503Z,1044.6
2016-10-30T00:47:51.492Z,1044.62
2016-10-30T00:48:51.635Z,1044.67
2016-10-30T00:49:51.475Z,1044.71
2016-10-30T00:50:51.465Z,1044.74
2016-10-30T00:51:51.453Z,1044.77
2016-10-30T00:52:51.446Z,1044.76
2016-10-30T00:53:51.434Z,1044.82
2016-10-30T00:54:51.427Z,1044.89
2016-10-30T00:55:51.415Z,1044.85
2016-10-30T00:56:51.408Z,1044.85
2016-10-30T00:57:51.397Z,1044.92
2016-10-30T00:58:52.629Z,1044.9
2016-10-30T00:59:51.546Z,1044.92
2016-10-30T01:00:52.531Z,1044.85
2016-10-30T01:01:51.356Z,1044.84
2016-10-30T01:02:51.349Z,1044.84
2016-10-30T01:03:51.337Z,1044.83
2016-10-30T01:04:51.329Z,1044.8
2016-10-30T01:05:51.319Z,1044.83
2016-10-30T01:06:51.309Z,1044.78
2016-10-30T01:07:51.298Z,1044.74
2016-10-30T01:08:51.289Z,1044.72
2016-10-30T01:09:51.278Z,1044.72
2016-10-30T01:10:51.268Z,1044.69
2016-10-30T01:11:51.261Z,1044.69
2016-10-30T01:12:51.248Z,1044.66
2016-10-30T01:13:51.238Z,1044.62
2016-10-30T01:14:51.231Z,1044.58
2016-10-30T01:15:51.220Z,1044.56
2016-10-30T01:16:51.209Z,1044.58
2016-10-30T01:17:51.199Z,1044.57
2016-10-30T01:18:51.189Z,1044.63
2016-10-30T01:19:51.181Z,1044.65
2016-10-30T01:20:51.172Z,1044.72
2016-10-30T01:21:51.162Z,1044.69
2016-10-30T01:22:51.151Z,1044.7
2016-10-30T01:23:51.138Z,1044.69
2016-10-30T01:24:51.132Z,1044.69
2016-10-30T01:25:51.122Z,1044.67
2016-10-30T01:26:51.112Z,1044.64
2016-10-30T01:27:51.100Z,1044.63
2016-10-30T01:28:51.092Z,1044.61
2016-10-30T01:29:51.082Z,1044.62
2016-10-30T01:30:51.072Z,1044.63
2016-10-30T01:31:51.060Z,1044.63
2016-10-30T01:32:51.051Z,1044.68
2016-10-30T01:33:51.041Z,1044.7
2016-10-30T01:34:51.030Z,1044.73
2016-10-30T01:35:51.023Z,1044.74
2016-10-30T01:36:51.011Z,1044.73
2016-10-30T01:37:50.999Z,1044.76
2016-10-30T01:38:50.993Z,1044.78
2016-10-30T01:39:50.981Z,1044.8
2016-10-30T01:40:50.971Z,1044.82
2016-10-30T01:41:50.962Z,1044.8
2016-10-30T01:42:50.951Z,1044.76
2016-10-30T01:43:50.941Z,1044.78
2016-10-30T01:44:50.931Z,1044.82
2016-10-30T01:45:50.920Z,1044.86
2016-10-30T01:46:50.910Z,1044.91
2016-10-30T01:47:50.901Z,1044.85
2016-10-30T01:48:50.890Z,1044.89
2016-10-30T01:49:50.882Z,1044.89
2016-10-30T01:50:50.871Z,1044.83
2016-10-30T01:51:50.861Z,1044.85
2016-10-30T01:52:50.850Z,1044.86
2016-10-30T01:53:50.842Z,1044.83
2016-10-30T01:54:51.330Z,1044.87
2016-10-30T01:55:50.823Z,1044.87
2016-10-30T01:56:50.811Z,1044.86
2016-10-30T01:57:50.801Z,1044.91
2016-10-30T01:58:50.789Z,1044.91
2016-10-30T01:59:50.778Z,1044.92
2016-10-30T02:00:50.789Z,1044.91
2016-10-30T02:01:50.858Z,1044.98
2016-10-30T02:02:51.301Z,1044.97
2016-10-30T02:03:50.739Z,1044.94
2016-10-30T02:04:50.727Z,1044.94
2016-10-30T02:05:50.719Z,1044.98
2016-10-30T02:06:50.708Z,1044.95
2016-10-30T02:07:50.699Z,1045.02
2016-10-30T02:08:50.686Z,1045.02
2016-10-30T02:09:50.681Z,1045
2016-10-30T02:10:50.666Z,1045.02
2016-10-30T02:11:50.655Z,1045.05
2016-10-30T02:12:50.645Z,1045.04
2016-10-30T02:13:50.635Z,1045.05
2016-10-30T02:14:50.624Z,1044.99
2016-10-30T02:15:50.616Z,1045.05
2016-10-30T02:16:50.606Z,1045.02
2016-10-30T02:17:50.592Z,1045.07
2016-10-30T02:18:51.789Z,1045.07
2016-10-30T02:19:50.574Z,1045.03
2016-10-30T02:20:50.671Z,1045.08
2016-10-30T02:21:50.551Z,1045.06
2016-10-30T02:22:50.541Z,1045.05
2016-10-30T02:23:50.531Z,1045.06
2016-10-30T02:24:50.522Z,1045.05
2016-10-30T02:26:50.501Z,1045.03
2016-10-30T02:27:50.489Z,1045.02
2016-10-30T02:28:50.481Z,1045
2016-10-30T02:29:50.469Z,1045
2016-10-30T02:30:50.461Z,1045
2016-10-30T02:31:50.448Z,1044.96
2016-10-30T02:32:50.439Z,1044.93
2016-10-30T02:33:50.429Z,1044.94
2016-10-30T02:34:50.417Z,1044.92
2016-10-30T02:35:50.408Z,1044.9
2016-10-30T02:36:50.400Z,1044.86
2016-10-30T02:37:50.386Z,1044.87
2016-10-30T02:38:50.374Z,1044.91
2016-10-30T02:39:50.365Z,1044.95
2016-10-30T02:40:50.355Z,1044.94
2016-10-30T02:41:50.345Z,1044.95
2016-10-30T02:42:50.332Z,1044.97
2016-10-30T02:43:50.323Z,1044.94
2016-10-30T02:44:50.311Z,1044.96
2016-10-30T02:45:50.302Z,1044.89
2016-10-30T02:46:50.292Z,1044.9
2016-10-30T02:47:50.281Z,1044.87
2016-10-30T02:48:50.270Z,1044.86
2016-10-30T02:49:50.260Z,1044.86
2016-10-30T02:50:50.248Z,1044.87
2016-10-30T02:51:50.237Z,1044.89
2016-10-30T02:52:50.228Z,1044.85
2016-10-30T02:53:50.217Z,1044.85
2016-10-30T02:54:50.204Z,1044.8
2016-10-30T02:55:50.196Z,1044.81
2016-10-30T02:56:50.183Z,1044.84
2016-10-30T02:57:50.173Z,1044.84
2016-10-30T02:58:50.163Z,1044.89
2016-10-30T02:59:50.153Z,1044.85
2016-10-30T03:00:50.143Z,1044.87
2016-10-30T03:01:50.131Z,1044.82
2016-10-30T03:02:50.118Z,1044.81
2016-10-30T03:03:50.109Z,1044.85
2016-10-30T03:04:50.098Z,1044.81
2016-10-30T03:05:50.089Z,1044.81
2016-10-30T03:06:50.078Z,1044.88
2016-10-30T03:07:50.068Z,1044.85
2016-10-30T03:08:50.058Z,1044.87
2016-10-30T03:09:50.044Z,1044.87
2016-10-30T03:10:50.034Z,1044.86
2016-10-30T03:11:50.023Z,1044.83
2016-10-30T03:12:50.015Z,1044.86
2016-10-30T03:13:50.654Z,1044.86
2016-10-30T03:14:49.993Z,1044.84
2016-10-30T03:15:49.983Z,1044.86
2016-10-30T03:16:49.972Z,1044.89
2016-10-30T03:17:49.961Z,1044.83
2016-10-30T03:18:49.949Z,1044.76
2016-10-30T03:19:49.940Z,1044.67
2016-10-30T03:20:50.027Z,1044.69
2016-10-30T03:21:49.919Z,1044.62
2016-10-30T03:22:49.907Z,1044.58
2016-10-30T03:23:49.897Z,1044.58
2016-10-30T03:24:49.886Z,1044.52
2016-10-30T03:25:49.877Z,1044.46
2016-10-30T03:26:49.866Z,1044.35
2016-10-30T03:27:49.855Z,1044.36
2016-10-30T03:28:49.843Z,1044.33
2016-10-30T03:29:49.835Z,1044.3
2016-10-30T03:30:49.824Z,1044.3
2016-10-30T03:31:49.811Z,1044.3
2016-10-30T03:32:49.803Z,1044.29
2016-10-30T03:33:49.793Z,1044.27
2016-10-30T03:34:49.782Z,1044.27
2016-10-30T03:35:49.770Z,1044.29
2016-10-30T03:36:50.122Z,1044.28
2016-10-30T03:37:49.750Z,1044.23
2016-10-30T03:38:50.623Z,1044.19
2016-10-30T03:39:49.731Z,1044.2
2016-10-30T03:40:49.721Z,1044.17
2016-10-30T03:41:49.711Z,1044.12
2016-10-30T03:42:49.700Z,1044.14
2016-10-30T03:43:49.690Z,1044.13
2016-10-30T03:44:49.929Z,1044.12
2016-10-30T03:45:49.669Z,1044.11
2016-10-30T03:46:49.660Z,1044.11
2016-10-30T03:47:49.648Z,1044.07
2016-10-30T03:48:49.640Z,1044.08
2016-10-30T03:49:49.629Z,1044.09
2016-10-30T03:50:49.617Z,1044.06
2016-10-30T03:51:49.758Z,1044
2016-10-30T03:52:49.598Z,1044.02
2016-10-30T03:53:49.589Z,1044.02
2016-10-30T03:54:49.577Z,1044.02
2016-10-30T03:55:49.570Z,1044.05
2016-10-30T03:56:49.559Z,1044.06
2016-10-30T03:57:49.549Z,1044.08
2016-10-30T03:58:49.541Z,1044.1
2016-10-30T03:59:49.530Z,1044.09
2016-10-30T04:00:49.516Z,1044.05
2016-10-30T04:01:49.507Z,1044.07
2016-10-30T04:02:49.498Z,1044.07
2016-10-30T04:03:49.489Z,1044.09
2016-10-30T04:04:49.513Z,1044.11
2016-10-30T04:05:49.468Z,1044.12
2016-10-30T04:06:49.458Z,1044.13
2016-10-30T04:07:49.447Z,1044.12
2016-10-30T04:08:49.438Z,1044.1
2016-10-30T04:09:49.428Z,1044.1
2016-10-30T04:10:49.418Z,1044.13
2016-10-30T04:11:49.407Z,1044.13
2016-10-30T04:12:49.399Z,1044.17
2016-10-30T04:13:49.390Z,1044.18
2016-10-30T04:14:49.379Z,1044.2
2016-10-30T04:15:49.367Z,1044.23
2016-10-30T04:16:49.359Z,1044.23
2016-10-30T04:17:49.347Z,1044.2
2016-10-30T04:18:49.338Z,1044.22
2016-10-30T04:19:49.327Z,1044.18
2016-10-30T04:20:49.317Z,1044.18
2016-10-30T04:21:49.309Z,1044.23
2016-10-30T04:22:49.296Z,1044.21
2016-10-30T04:23:49.286Z,1044.24
2016-10-30T04:24:49.278Z,1044.22
2016-10-30T04:25:49.266Z,1044.22
2016-10-30T04:26:49.257Z,1044.26
2016-10-30T04:27:49.250Z,1044.28
2016-10-30T04:28:49.235Z,1044.28
2016-10-30T04:29:49.224Z,1044.31
2016-10-30T04:30:49.217Z,1044.31
2016-10-30T04:31:49.205Z,1044.28
2016-10-30T04:32:49.197Z,1044.27
2016-10-30T04:33:49.186Z,1044.24
2016-10-30T04:34:49.176Z,1044.21
2016-10-30T04:35:49.166Z,1044.26
2016-10-30T04:36:49.153Z,1044.22
2016-10-30T04:37:49.145Z,1044.18
2016-10-30T04:38:49.133Z,1044.22
2016-10-30T04:39:49.125Z,1044.23
2016-10-30T04:40:49.114Z,1044.26
2016-10-30T04:41:49.104Z,1044.24
2016-10-30T04:42:49.195Z,1044.28
2016-10-30T04:43:49.085Z,1044.25
2016-10-30T04:44:49.071Z,1044.25
2016-10-30T04:45:49.064Z,1044.27
2016-10-30T04:46:49.054Z,1044.27
2016-10-30T04:47:49.041Z,1044.32
2016-10-30T04:48:49.033Z,1044.35
2016-10-30T04:49:49.023Z,1044.31
2016-10-30T04:50:49.013Z,1044.32
2016-10-30T04:51:49.000Z,1044.37
2016-10-30T04:52:48.992Z,1044.35
2016-10-30T04:53:48.982Z,1044.35
2016-10-30T04:54:48.973Z,1044.35
2016-10-30T04:55:48.962Z,1044.34
2016-10-30T04:56:49.464Z,1044.35
2016-10-30T04:57:48.940Z,1044.37
2016-10-30T04:58:49.495Z,1044.42
2016-10-30T04:59:48.919Z,1044.46
2016-10-30T05:00:48.911Z,1044.49
2016-10-30T05:01:48.901Z,1044.51
2016-10-30T05:02:50.886Z,1044.53
2016-10-30T05:03:49.660Z,1044.52
2016-10-30T05:04:48.868Z,1044.53
2016-10-30T05:05:48.858Z,1044.51
2016-10-30T05:06:48.849Z,1044.54
2016-10-30T05:07:49.106Z,1044.53
2016-10-30T05:08:48.829Z,1044.53
2016-10-30T05:09:48.816Z,1044.51
2016-10-30T05:10:48.808Z,1044.53
2016-10-30T05:11:48.797Z,1044.54
2016-10-30T05:12:48.788Z,1044.5
2016-10-30T05:13:48.774Z,1044.48
2016-10-30T05:14:48.766Z,1044.45
2016-10-30T05:15:48.753Z,1044.44
2016-10-30T05:16:48.746Z,1044.41
2016-10-30T05:17:48.733Z,1044.46
2016-10-30T05:18:48.725Z,1044.44
2016-10-30T05:19:48.715Z,1044.45
2016-10-30T05:20:48.702Z,1044.47
2016-10-30T05:21:48.694Z,1044.4
2016-10-30T05:22:48.683Z,1044.34
2016-10-30T05:23:48.673Z,1044.32
2016-10-30T05:24:48.662Z,1044.28
2016-10-30T05:25:48.650Z,1044.27
2016-10-30T05:26:48.640Z,1044.24
2016-10-30T05:27:48.630Z,1044.24
2016-10-30T05:28:48.619Z,1044.21
2016-10-30T05:29:48.611Z,1044.2
2016-10-30T05:30:48.601Z,1044.2
2016-10-30T05:31:48.588Z,1044.09
2016-10-30T05:32:48.578Z,1044.09
2016-10-30T05:33:48.570Z,1044.03
2016-10-30T05:34:48.560Z,1043.99
2016-10-30T05:35:48.547Z,1043.94
2016-10-30T05:36:48.539Z,1043.9
2016-10-30T05:37:48.529Z,1043.88
2016-10-30T05:38:48.517Z,1043.84
2016-10-30T05:39:48.517Z,1043.81
2016-10-30T05:40:48.500Z,1043.8
2016-10-30T05:41:48.490Z,1043.75
2016-10-30T05:42:48.479Z,1043.74
2016-10-30T05:43:48.467Z,1043.72
2016-10-30T05:44:48.460Z,1043.75
2016-10-30T05:45:48.448Z,1043.77
2016-10-30T05:46:48.439Z,1043.76
2016-10-30T05:47:48.430Z,1043.72
2016-10-30T05:48:48.418Z,1043.72
2016-10-30T05:49:48.410Z,1043.68
2016-10-30T05:50:48.398Z,1043.69
2016-10-30T05:51:49.140Z,1043.69
2016-10-30T05:52:48.378Z,1043.67
2016-10-30T05:53:48.370Z,1043.64
2016-10-30T05:54:48.362Z,1043.67
2016-10-30T05:55:48.350Z,1043.64
2016-10-30T05:56:48.342Z,1043.64
2016-10-30T05:57:48.330Z,1043.68
2016-10-30T05:58:48.320Z,1043.65
2016-10-30T05:59:48.313Z,1043.69
2016-10-30T06:00:48.301Z,1043.71
2016-10-30T06:01:48.591Z,1043.68
2016-10-30T06:02:48.284Z,1043.64
2016-10-30T06:03:48.272Z,1043.61
2016-10-30T06:04:48.262Z,1043.55
2016-10-30T06:05:48.255Z,1043.55
2016-10-30T06:06:48.245Z,1043.57
2016-10-30T06:07:48.236Z,1043.54
2016-10-30T06:08:48.226Z,1043.51
2016-10-30T06:09:48.215Z,1043.53
2016-10-30T06:10:48.205Z,1043.52
2016-10-30T06:11:48.195Z,1043.54
2016-10-30T06:12:49.846Z,1043.48
2016-10-30T06:13:48.179Z,1043.44
2016-10-30T06:14:49.063Z,1043.5
2016-10-30T06:15:48.923Z,1043.46
2016-10-30T06:16:48.148Z,1043.44
2016-10-30T06:17:48.147Z,1043.39
2016-10-30T06:18:48.130Z,1043.43
2016-10-30T06:19:48.120Z,1043.39
2016-10-30T06:20:48.113Z,1043.4
2016-10-30T06:21:48.104Z,1043.4
2016-10-30T06:22:49.126Z,1043.41
2016-10-30T06:23:48.085Z,1043.45
2016-10-30T06:24:48.076Z,1043.44
2016-10-30T06:25:48.067Z,1043.43
2016-10-30T06:26:48.054Z,1043.44
2016-10-30T06:27:48.048Z,1043.49
2016-10-30T06:28:48.037Z,1043.45
2016-10-30T06:29:48.030Z,1043.44
2016-10-30T06:30:48.018Z,1043.46
2016-10-30T06:31:48.009Z,1043.45
2016-10-30T06:32:48.000Z,1043.44
2016-10-30T06:33:47.990Z,1043.45
2016-10-30T06:34:47.981Z,1043.46
2016-10-30T06:35:47.973Z,1043.48
2016-10-30T06:36:47.963Z,1043.4
2016-10-30T06:37:47.953Z,1043.44
2016-10-30T06:38:47.947Z,1043.46
2016-10-30T06:39:47.935Z,1043.46
2016-10-30T06:40:47.928Z,1043.46
2016-10-30T06:41:47.916Z,1043.51
2016-10-30T06:42:47.910Z,1043.49
2016-10-30T06:43:47.901Z,1043.52
2016-10-30T06:44:47.889Z,1043.56
2016-10-30T06:45:47.882Z,1043.55
2016-10-30T06:46:47.873Z,1043.6
2016-10-30T06:47:47.862Z,1043.58
2016-10-30T06:48:47.852Z,1043.58
2016-10-30T06:49:47.843Z,1043.59
2016-10-30T06:50:47.836Z,1043.57
2016-10-30T06:51:47.825Z,1043.52
2016-10-30T06:52:47.816Z,1043.5
2016-10-30T06:53:47.807Z,1043.44
2016-10-30T06:54:47.798Z,1043.4
2016-10-30T06:55:47.790Z,1043.33
2016-10-30T06:56:47.781Z,1043.29
2016-10-30T06:57:47.772Z,1043.25
2016-10-30T06:58:47.761Z,1043.2
2016-10-30T06:59:47.754Z,1043.17
2016-10-30T07:00:47.743Z,1043.18
2016-10-30T07:01:47.734Z,1043.13
2016-10-30T07:02:47.727Z,1043.1
2016-10-30T07:03:47.717Z,1043.05
2016-10-30T07:04:47.708Z,1043.01
2016-10-30T07:05:48.098Z,1042.93
2016-10-30T07:06:47.688Z,1042.87
2016-10-30T07:07:47.681Z,1042.88
2016-10-30T07:08:47.671Z,1042.82
2016-10-30T07:09:47.662Z,1042.74
2016-10-30T07:10:47.853Z,1042.78
2016-10-30T07:11:47.644Z,1042.74
2016-10-30T07:12:47.638Z,1042.69
2016-10-30T07:13:47.629Z,1042.67
2016-10-30T07:14:47.621Z,1042.63
2016-10-30T07:15:47.610Z,1042.59
2016-10-30T07:16:47.953Z,1042.59
2016-10-30T07:17:47.595Z,1042.52
2016-10-30T07:18:48.187Z,1042.54
2016-10-30T07:19:47.577Z,1042.47
2016-10-30T07:20:47.570Z,1042.45
2016-10-30T07:21:47.560Z,1042.42
2016-10-30T07:22:47.552Z,1042.47
2016-10-30T07:23:47.543Z,1042.46
2016-10-30T07:24:47.534Z,1042.55
2016-10-30T07:25:47.527Z,1042.56
2016-10-30T07:26:47.521Z,1042.66
2016-10-30T07:27:47.513Z,1042.71
2016-10-30T07:28:47.502Z,1042.77
2016-10-30T07:29:47.496Z,1042.76
2016-10-30T07:30:47.586Z,1042.77
2016-10-30T07:31:47.479Z,1042.72
2016-10-30T07:32:48.692Z,1042.61
2016-10-30T07:33:47.461Z,1042.56
2016-10-30T07:34:47.457Z,1042.51
2016-10-30T07:35:47.448Z,1042.44
2016-10-30T07:36:47.440Z,1042.4
2016-10-30T07:37:47.431Z,1042.4
2016-10-30T07:38:47.424Z,1042.38
2016-10-30T07:39:47.415Z,1042.37
2016-10-30T07:40:48.436Z,1042.37
2016-10-30T07:41:47.794Z,1042.35
2016-10-30T07:42:47.393Z,1042.32
2016-10-30T07:43:47.384Z,1042.3
2016-10-30T07:44:47.378Z,1042.23
2016-10-30T07:45:47.371Z,1042.21
2016-10-30T07:46:47.491Z,1042.19
2016-10-30T07:47:47.353Z,1042.21
2016-10-30T07:48:47.346Z,1042.15
2016-10-30T07:49:47.339Z,1042.1
2016-10-30T07:50:47.333Z,1042.06
2016-10-30T07:51:47.326Z,1042.07
2016-10-30T07:52:47.316Z,1042.05
2016-10-30T07:53:47.309Z,1042.03
2016-10-30T07:54:47.301Z,1042.04
2016-10-30T07:55:47.295Z,1041.94
2016-10-30T07:56:47.290Z,1041.88
2016-10-30T07:57:47.282Z,1041.84
2016-10-30T07:58:47.273Z,1041.9
2016-10-30T07:59:47.268Z,1041.89
2016-10-30T08:00:47.261Z,1041.91
2016-10-30T08:01:47.251Z,1041.92
2016-10-30T08:02:47.247Z,1041.89
2016-10-30T08:03:47.238Z,1041.9
2016-10-30T08:04:47.234Z,1041.87
2016-10-30T08:05:47.226Z,1041.97
2016-10-30T08:06:47.248Z,1041.96
2016-10-30T08:07:47.211Z,1042
2016-10-30T08:08:47.205Z,1042.04
2016-10-30T08:09:47.199Z,1042.09
2016-10-30T08:10:47.192Z,1042.14
2016-10-30T08:11:47.186Z,1042.14
2016-10-30T08:12:47.176Z,1042.06
2016-10-30T08:13:47.172Z,1042
2016-10-30T08:14:47.165Z,1041.99
2016-10-30T08:15:47.159Z,1041.85
2016-10-30T08:16:47.151Z,1041.81
2016-10-30T08:17:47.152Z,1041.79
2016-10-30T08:18:47.140Z,1041.71
2016-10-30T08:19:47.144Z,1041.63
2016-10-30T08:20:47.125Z,1041.57
2016-10-30T08:21:47.116Z,1041.47
2016-10-30T08:22:47.110Z,1041.43
2016-10-30T08:23:47.105Z,1041.24
2016-10-30T08:24:47.297Z,1041.17
2016-10-30T08:25:47.093Z,1041.05
2016-10-30T08:26:47.087Z,1041.03
2016-10-30T08:28:47.074Z,1041.03
2016-10-30T08:29:47.068Z,1041.01
2016-10-30T08:30:47.061Z,1040.94
2016-10-30T08:31:47.053Z,1040.87
2016-10-30T08:32:47.648Z,1040.93
2016-10-30T08:33:47.044Z,1040.77
2016-10-30T08:34:47.886Z,1040.73
2016-10-30T08:35:47.030Z,1040.73
2016-10-30T08:36:47.027Z,1040.73
2016-10-30T08:37:47.022Z,1040.45
2016-10-30T08:38:47.015Z,1040.4
2016-10-30T08:39:47.007Z,1040.53
2016-10-30T08:40:47.003Z,1040.61
2016-10-30T08:41:46.998Z,1040.77
2016-10-30T08:42:46.991Z,1040.97
2016-10-30T08:43:46.985Z,1041.08
2016-10-30T08:44:46.981Z,1041.14
2016-10-30T08:45:46.976Z,1041.13
2016-10-30T08:46:46.969Z,1041.11
2016-10-30T08:47:46.966Z,1041.15
2016-10-30T08:48:46.961Z,1041.27
2016-10-30T08:49:46.955Z,1041.36
2016-10-30T08:50:46.950Z,1041.36
2016-10-30T08:51:46.943Z,1041.32
2016-10-30T08:52:46.937Z,1041.27
2016-10-30T08:53:46.933Z,1041.35
2016-10-30T08:54:46.926Z,1041.46
2016-10-30T08:55:46.921Z,1041.54
2016-10-30T08:56:47.086Z,1041.7
2016-10-30T08:57:46.911Z,1041.8
2016-10-30T08:58:47.422Z,1041.95
2016-10-30T08:59:47.786Z,1042.02
2016-10-30T09:00:46.894Z,1042.16
2016-10-30T09:01:46.888Z,1042.2
2016-10-30T09:02:46.881Z,1042.35
2016-10-30T09:03:46.876Z,1042.44
2016-10-30T09:04:46.959Z,1042.46
2016-10-30T09:05:46.862Z,1042.47
2016-10-30T09:06:46.856Z,1042.39
2016-10-30T09:07:46.852Z,1042.37
2016-10-30T09:08:46.846Z,1042.31
2016-10-30T09:09:46.840Z,1042.29
2016-10-30T09:10:46.831Z,1042.26
2016-10-30T09:11:46.827Z,1042.08
2016-10-30T09:12:46.819Z,1041.86
2016-10-30T09:13:46.815Z,1041.69
2016-10-30T09:14:46.806Z,1041.6
2016-10-30T09:15:46.802Z,1041.44
2016-10-30T09:16:46.794Z,1041.39
2016-10-30T09:17:46.791Z,1041.44
2016-10-30T09:18:46.783Z,1041.47
2016-10-30T09:19:46.776Z,1041.49
2016-10-30T09:20:46.770Z,1041.29
2016-10-30T09:21:46.765Z,1041.27
2016-10-30T09:22:46.757Z,1041.32
2016-10-30T09:23:46.754Z,1041.47
2016-10-30T09:24:46.748Z,1041.32
2016-10-30T09:25:46.742Z,1041.16
2016-10-30T09:26:46.736Z,1041.17
2016-10-30T09:27:46.731Z,1041.19
2016-10-30T09:28:46.726Z,1041.22
2016-10-30T09:29:46.719Z,1041.27
2016-10-30T09:30:46.711Z,1041.2
2016-10-30T09:31:46.708Z,1041.17
2016-10-30T09:32:46.701Z,1041.1
2016-10-30T09:33:46.695Z,1041.09
2016-10-30T09:34:46.691Z,1041.1
2016-10-30T09:35:46.686Z,1041.3
2016-10-30T09:36:46.680Z,1041.31
2016-10-30T09:37:46.673Z,1041.28
2016-10-30T09:38:46.668Z,1041.27
2016-10-30T09:39:46.664Z,1041.27
2016-10-30T09:40:46.658Z,1041.22
2016-10-30T09:41:46.650Z,1041.35
2016-10-30T09:42:46.849Z,1041.42
2016-10-30T09:43:46.993Z,1041.41
2016-10-30T09:45:46.632Z,1041.45
2016-10-30T09:46:46.627Z,1041.47
2016-10-30T09:47:46.619Z,1041.52
2016-10-30T09:48:46.613Z,1041.58
2016-10-30T09:49:46.608Z,1041.55
2016-10-30T09:50:46.603Z,1041.56
2016-10-30T09:51:46.599Z,1041.47
2016-10-30T09:52:46.595Z,1041.44
2016-10-30T09:53:46.588Z,1041.61
2016-10-30T09:54:46.581Z,1041.61
2016-10-30T09:55:46.577Z,1041.72
2016-10-30T09:56:46.570Z,1041.71
2016-10-30T09:57:46.567Z,1041.78
2016-10-30T09:58:46.558Z,1041.88
2016-10-30T09:59:46.553Z,1041.81
2016-10-30T10:00:46.548Z,1041.93
2016-10-30T10:01:46.542Z,1041.9
2016-10-30T10:02:46.538Z,1041.93
2016-10-30T10:03:46.533Z,1041.98
2016-10-30T10:04:46.527Z,1042.09
2016-10-30T10:05:46.524Z,1042.1
2016-10-30T10:06:46.513Z,1042.12
2016-10-30T10:07:47.897Z,1042.17
2016-10-30T10:08:46.505Z,1042.25
2016-10-30T10:09:46.499Z,1042.33
2016-10-30T10:10:46.491Z,1042.36
2016-10-30T10:11:46.612Z,1042.45
2016-10-30T10:12:46.479Z,1042.47
2016-10-30T10:13:46.475Z,1042.45
2016-10-30T10:14:46.491Z,1042.39
2016-10-30T10:15:46.898Z,1042.33
2016-10-30T10:16:46.457Z,1042.26
2016-10-30T10:17:47.460Z,1042.19
2016-10-30T10:18:46.445Z,1042.24
2016-10-30T10:19:46.440Z,1042.1
2016-10-30T10:20:47.048Z,1042.15
2016-10-30T10:21:46.426Z,1042.16
2016-10-30T10:22:46.421Z,1042.11
2016-10-30T10:23:46.413Z,1042.22
2016-10-30T10:24:46.409Z,1042.27
2016-10-30T10:25:46.400Z,1042.25
2016-10-30T10:26:46.397Z,1042.26
2016-10-30T10:27:46.389Z,1042.28
2016-10-30T10:28:46.384Z,1042.37
2016-10-30T10:29:46.378Z,1042.39
2016-10-30T10:30:46.370Z,1042.51
2016-10-30T10:31:46.366Z,1042.48
2016-10-30T10:32:46.361Z,1042.51
2016-10-30T10:33:46.353Z,1042.39
2016-10-30T10:34:46.349Z,1042.41
2016-10-30T10:35:46.352Z,1042.37
2016-10-30T10:36:46.336Z,1042.33
2016-10-30T10:37:46.329Z,1042.33
2016-10-30T10:38:46.320Z,1042.29
2016-10-30T10:39:46.318Z,1042.28
2016-10-30T10:40:46.312Z,1042.25
2016-10-30T10:41:46.303Z,1042.24
2016-10-30T10:42:46.299Z,1042.28
2016-10-30T10:43:46.291Z,1042.38
2016-10-30T10:44:46.284Z,1042.36
2016-10-30T10:45:46.279Z,1042.37
2016-10-30T10:46:46.272Z,1042.31
2016-10-30T10:47:46.268Z,1042.31
2016-10-30T10:48:46.262Z,1042.33
2016-10-30T10:49:46.253Z,1042.31
2016-10-30T10:50:46.249Z,1042.35
2016-10-30T10:51:46.241Z,1042.26
2016-10-30T10:52:46.235Z,1042.11
2016-10-30T10:53:46.231Z,1042.15
2016-10-30T10:54:46.225Z,1042.2
2016-10-30T10:55:46.218Z,1042.24
2016-10-30T10:56:46.213Z,1042.28
2016-10-30T10:57:46.204Z,1042.33
2016-10-30T10:58:46.198Z,1042.36
2016-10-30T10:59:46.194Z,1042.39
2016-10-30T11:00:46.737Z,1042.44
2016-10-30T11:01:46.881Z,1042.42
2016-10-30T11:02:46.175Z,1042.47
2016-10-30T11:03:46.169Z,1042.45
2016-10-30T11:04:46.160Z,1042.44
2016-10-30T11:05:46.156Z,1042.38
2016-10-30T11:06:46.150Z,1042.37
2016-10-30T11:07:46.143Z,1042.32
2016-10-30T11:08:46.134Z,1042.29
2016-10-30T11:09:46.128Z,1042.23
2016-10-30T11:10:46.124Z,1042.18
2016-10-30T11:11:47.017Z,1042.17
2016-10-30T11:12:46.260Z,1042.21
2016-10-30T11:13:46.103Z,1042.17
2016-10-30T11:14:46.099Z,1042.13
2016-10-30T11:15:46.091Z,1042.11
2016-10-30T11:16:46.082Z,1042.13
2016-10-30T11:17:46.078Z,1042.15
2016-10-30T11:18:46.069Z,1042.1
2016-10-30T11:19:46.065Z,1042.11
2016-10-30T11:20:46.056Z,1042.08
2016-10-30T11:21:46.050Z,1042.06
2016-10-30T11:22:46.045Z,1042
2016-10-30T11:23:46.039Z,1041.94
2016-10-30T11:24:47.286Z,1041.96
2016-10-30T11:25:47.102Z,1041.81
2016-10-30T11:26:46.020Z,1041.72
2016-10-30T11:27:47.148Z,1041.73
2016-10-30T11:28:46.006Z,1041.73
2016-10-30T11:29:45.999Z,1041.69
2016-10-30T11:30:45.993Z,1041.56
2016-10-30T11:31:45.988Z,1041.54
2016-10-30T11:32:45.984Z,1041.54
2016-10-30T11:33:45.975Z,1041.62
2016-10-30T11:34:45.973Z,1041.67
2016-10-30T11:35:45.966Z,1041.77
2016-10-30T11:36:46.901Z,1041.87
2016-10-30T11:37:45.950Z,1041.92
2016-10-30T11:38:45.947Z,1041.95
2016-10-30T11:39:45.941Z,1042.1
2016-10-30T11:40:45.957Z,1042.08
2016-10-30T11:41:45.926Z,1042.13
2016-10-30T11:42:45.920Z,1042.23
2016-10-30T11:43:45.916Z,1042.26
2016-10-30T11:44:45.908Z,1042.29
2016-10-30T11:45:45.902Z,1042.28
2016-10-30T11:46:45.897Z,1042.31
2016-10-30T11:47:45.890Z,1042.35
2016-10-30T11:48:45.882Z,1042.36
2016-10-30T11:49:45.878Z,1042.33
2016-10-30T11:50:45.870Z,1042.35
2016-10-30T11:51:45.863Z,1042.33
2016-10-30T11:52:45.857Z,1042.32
2016-10-30T11:53:45.853Z,1042.34
2016-10-30T11:54:45.846Z,1042.34
2016-10-30T11:55:45.837Z,1042.32
2016-10-30T11:56:45.833Z,1042.36
2016-10-30T11:57:45.827Z,1042.4
2016-10-30T11:58:45.821Z,1042.38
2016-10-30T11:59:45.814Z,1042.4
2016-10-30T12:00:45.808Z,1042.44
2016-10-30T12:01:45.802Z,1042.45
2016-10-30T12:02:45.793Z,1042.47
2016-10-30T12:03:45.788Z,1042.47
2016-10-30T12:04:45.780Z,1042.47
2016-10-30T12:05:45.776Z,1042.47
2016-10-30T12:06:45.765Z,1042.42
2016-10-30T12:07:45.760Z,1042.42
2016-10-30T12:08:45.754Z,1042.37
2016-10-30T12:09:45.749Z,1042.38
2016-10-30T12:10:45.741Z,1042.38
2016-10-30T12:11:45.735Z,1042.33